sensor_id;sensor_type;location;lat;lon;timestamp;temperature;humidity
70368;DHT22;57789;53.868;10.728;2022-10-13T00:01:22;7.00;99.90
70368;DHT22;57789;53.868;10.728;2022-10-13T00:03:49;7.00;99.90
70368;DHT22;57789;53.868;10.728;2022-10-13T00:06:17;7.20;99.90
70368;DHT22;57789;53.868;10.728;2022-10-13T00:08:43;7.40;99.90
70368;DHT22;57789;53.868;10.728;2022-10-13T00:11:12;7.50;99.90
70368;DHT22;57789;53.868;10.728;2022-10-13T00:13:39;7.50;99.90
70368;DHT22;57789;53.868;10.728;2022-10-13T00:16:06;7.60;99.90
70368;DHT22;57789;53.868;10.728;2022-10-13T00:18:32;7.60;99.90
70368;DHT22;57789;53.868;10.728;2022-10-13T00:20:58;7.80;99.90
70368;DHT22;57789;53.868;10.728;2022-10-13T00:23:23;7.90;99.90
70368;DHT22;57789;53.868;10.728;2022-10-13T00:25:49;8.10;99.90
70368;DHT22;57789;53.868;10.728;2022-10-13T00:28:18;8.20;99.90
70368;DHT22;57789;53.868;10.728;2022-10-13T00:30:44;8.20;99.90
70368;DHT22;57789;53.868;10.728;2022-10-13T00:33:11;8.20;99.90
70368;DHT22;57789;53.868;10.728;2022-10-13T00:35:42;8.30;99.90
70368;DHT22;57789;53.868;10.728;2022-10-13T00:38:08;8.30;99.90
70368;DHT22;57789;53.868;10.728;2022-10-13T00:40:42;8.30;99.90
70368;DHT22;57789;53.868;10.728;2022-10-13T00:46:09;8.30;99.90
70368;DHT22;57789;53.868;10.728;2022-10-13T00:48:35;8.40;99.90
70368;DHT22;57789;53.868;10.728;2022-10-13T00:51:00;8.40;99.90
70368;DHT22;57789;53.868;10.728;2022-10-13T00:53:31;8.40;99.90
70368;DHT22;57789;53.868;10.728;2022-10-13T00:55:58;8.30;99.90
70368;DHT22;57789;53.868;10.728;2022-10-13T00:58:25;8.20;99.90
70368;DHT22;57789;53.868;10.728;2022-10-13T01:00:56;8.20;99.90
70368;DHT22;57789;53.868;10.728;2022-10-13T01:03:22;8.30;99.90
70368;DHT22;57789;53.868;10.728;2022-10-13T01:05:49;8.30;99.90
70368;DHT22;57789;53.868;10.728;2022-10-13T01:08:17;8.30;99.90
70368;DHT22;57789;53.868;10.728;2022-10-13T01:11:11;8.20;99.90
70368;DHT22;57789;53.868;10.728;2022-10-13T01:16:39;8.10;99.90
70368;DHT22;57789;53.868;10.728;2022-10-13T01:22:29;8.00;99.90
70368;DHT22;57789;53.868;10.728;2022-10-13T01:30:50;8.50;99.90
70368;DHT22;57789;53.868;10.728;2022-10-13T01:34:35;8.50;99.90
70368;DHT22;57789;53.868;10.728;2022-10-13T01:39:30;8.20;99.90
70368;DHT22;57789;53.868;10.728;2022-10-13T01:42:21;8.20;99.90
70368;DHT22;57789;53.868;10.728;2022-10-13T01:44:59;8.20;99.90
70368;DHT22;57789;53.868;10.728;2022-10-13T01:47:27;8.20;99.90
70368;DHT22;57789;53.868;10.728;2022-10-13T01:49:53;8.20;99.90
70368;DHT22;57789;53.868;10.728;2022-10-13T01:52:24;8.30;99.90
70368;DHT22;57789;53.868;10.728;2022-10-13T01:54:51;8.20;99.90
70368;DHT22;57789;53.868;10.728;2022-10-13T01:57:35;8.30;99.90
70368;DHT22;57789;53.868;10.728;2022-10-13T02:00:12;8.30;99.90
70368;DHT22;57789;53.868;10.728;2022-10-13T02:08:23;8.20;99.90
70368;DHT22;57789;53.868;10.728;2022-10-13T02:10:51;8.40;99.90
70368;DHT22;57789;53.868;10.728;2022-10-13T02:13:21;8.40;99.90
70368;DHT22;57789;53.868;10.728;2022-10-13T02:15:51;8.30;99.90
70368;DHT22;57789;53.868;10.728;2022-10-13T02:18:21;8.30;99.90
70368;DHT22;57789;53.868;10.728;2022-10-13T02:20:49;8.20;99.90
70368;DHT22;57789;53.868;10.728;2022-10-13T02:23:16;8.30;99.90
70368;DHT22;57789;53.868;10.728;2022-10-13T02:25:42;8.30;99.90
70368;DHT22;57789;53.868;10.728;2022-10-13T02:28:09;8.40;99.90
70368;DHT22;57789;53.868;10.728;2022-10-13T02:30:38;8.40;99.90
70368;DHT22;57789;53.868;10.728;2022-10-13T02:33:04;8.40;99.90
70368;DHT22;57789;53.868;10.728;2022-10-13T02:35:30;8.30;99.90
70368;DHT22;57789;53.868;10.728;2022-10-13T02:37:57;8.10;99.90
70368;DHT22;57789;53.868;10.728;2022-10-13T02:40:23;8.00;99.90
70368;DHT22;57789;53.868;10.728;2022-10-13T02:42:49;7.90;99.90
70368;DHT22;57789;53.868;10.728;2022-10-13T02:45:14;7.90;99.90
70368;DHT22;57789;53.868;10.728;2022-10-13T02:47:40;7.90;99.90
70368;DHT22;57789;53.868;10.728;2022-10-13T02:50:06;7.80;99.90
70368;DHT22;57789;53.868;10.728;2022-10-13T02:52:32;7.70;99.90
70368;DHT22;57789;53.868;10.728;2022-10-13T02:54:59;7.70;99.90
70368;DHT22;57789;53.868;10.728;2022-10-13T02:57:24;7.60;99.90
70368;DHT22;57789;53.868;10.728;2022-10-13T02:59:50;7.50;99.90
70368;DHT22;57789;53.868;10.728;2022-10-13T03:02:16;7.40;99.90
70368;DHT22;57789;53.868;10.728;2022-10-13T03:04:42;7.30;99.90
70368;DHT22;57789;53.868;10.728;2022-10-13T03:07:08;7.50;99.90
70368;DHT22;57789;53.868;10.728;2022-10-13T03:09:34;7.50;99.90
70368;DHT22;57789;53.868;10.728;2022-10-13T03:11:59;7.60;99.90
70368;DHT22;57789;53.868;10.728;2022-10-13T03:14:25;7.60;99.90
70368;DHT22;57789;53.868;10.728;2022-10-13T03:16:50;7.60;99.90
70368;DHT22;57789;53.868;10.728;2022-10-13T03:19:16;7.70;99.90
70368;DHT22;57789;53.868;10.728;2022-10-13T03:21:42;7.60;99.90
70368;DHT22;57789;53.868;10.728;2022-10-13T03:24:07;7.60;99.90
70368;DHT22;57789;53.868;10.728;2022-10-13T03:26:33;7.60;99.90
70368;DHT22;57789;53.868;10.728;2022-10-13T03:28:59;7.60;99.90
70368;DHT22;57789;53.868;10.728;2022-10-13T03:31:25;7.70;99.90
70368;DHT22;57789;53.868;10.728;2022-10-13T03:33:51;7.80;99.90
70368;DHT22;57789;53.868;10.728;2022-10-13T03:36:17;7.70;99.90
70368;DHT22;57789;53.868;10.728;2022-10-13T03:38:43;7.40;99.90
70368;DHT22;57789;53.868;10.728;2022-10-13T03:41:11;7.40;99.90
70368;DHT22;57789;53.868;10.728;2022-10-13T03:43:37;7.60;99.90
70368;DHT22;57789;53.868;10.728;2022-10-13T03:46:04;7.60;99.90
70368;DHT22;57789;53.868;10.728;2022-10-13T03:48:30;7.60;99.90
70368;DHT22;57789;53.868;10.728;2022-10-13T03:50:56;7.60;99.90
70368;DHT22;57789;53.868;10.728;2022-10-13T03:53:23;7.70;99.90
70368;DHT22;57789;53.868;10.728;2022-10-13T03:55:50;7.80;99.90
70368;DHT22;57789;53.868;10.728;2022-10-13T03:58:16;7.90;99.90
70368;DHT22;57789;53.868;10.728;2022-10-13T04:00:42;8.10;99.90
70368;DHT22;57789;53.868;10.728;2022-10-13T04:03:08;8.00;99.90
70368;DHT22;57789;53.868;10.728;2022-10-13T04:05:34;7.90;99.90
70368;DHT22;57789;53.868;10.728;2022-10-13T04:07:59;7.90;99.90
70368;DHT22;57789;53.868;10.728;2022-10-13T04:10:25;8.00;99.90
70368;DHT22;57789;53.868;10.728;2022-10-13T04:12:51;7.80;99.90
70368;DHT22;57789;53.868;10.728;2022-10-13T04:15:16;7.60;99.90
70368;DHT22;57789;53.868;10.728;2022-10-13T04:17:42;7.50;99.90
70368;DHT22;57789;53.868;10.728;2022-10-13T04:20:08;7.50;99.90
70368;DHT22;57789;53.868;10.728;2022-10-13T04:22:34;7.60;99.90
70368;DHT22;57789;53.868;10.728;2022-10-13T04:24:59;7.50;99.90
70368;DHT22;57789;53.868;10.728;2022-10-13T04:27:25;7.50;99.90
70368;DHT22;57789;53.868;10.728;2022-10-13T04:29:51;7.40;99.90
70368;DHT22;57789;53.868;10.728;2022-10-13T04:32:17;7.60;99.90
70368;DHT22;57789;53.868;10.728;2022-10-13T04:34:43;7.60;99.90
70368;DHT22;57789;53.868;10.728;2022-10-13T04:37:09;7.60;99.90
70368;DHT22;57789;53.868;10.728;2022-10-13T04:39:35;7.70;99.90
70368;DHT22;57789;53.868;10.728;2022-10-13T04:42:00;7.70;99.90
70368;DHT22;57789;53.868;10.728;2022-10-13T04:44:26;7.80;99.90
70368;DHT22;57789;53.868;10.728;2022-10-13T04:46:52;7.80;99.90
70368;DHT22;57789;53.868;10.728;2022-10-13T04:49:18;7.70;99.90
70368;DHT22;57789;53.868;10.728;2022-10-13T04:51:43;7.60;99.90
70368;DHT22;57789;53.868;10.728;2022-10-13T04:54:09;7.60;99.90
70368;DHT22;57789;53.868;10.728;2022-10-13T04:56:35;7.70;99.90
70368;DHT22;57789;53.868;10.728;2022-10-13T04:59:02;7.70;99.90
70368;DHT22;57789;53.868;10.728;2022-10-13T05:01:31;7.70;99.90
70368;DHT22;57789;53.868;10.728;2022-10-13T05:03:59;7.80;99.90
70368;DHT22;57789;53.868;10.728;2022-10-13T05:06:27;8.00;99.90
70368;DHT22;57789;53.868;10.728;2022-10-13T05:08:54;7.90;99.90
70368;DHT22;57789;53.868;10.728;2022-10-13T05:11:20;7.80;99.90
70368;DHT22;57789;53.868;10.728;2022-10-13T05:13:47;7.60;99.90
70368;DHT22;57789;53.868;10.728;2022-10-13T05:16:15;7.60;99.90
70368;DHT22;57789;53.868;10.728;2022-10-13T05:18:41;7.50;99.90
70368;DHT22;57789;53.868;10.728;2022-10-13T05:21:09;7.50;99.90
70368;DHT22;57789;53.868;10.728;2022-10-13T05:23:35;7.40;99.90
70368;DHT22;57789;53.868;10.728;2022-10-13T05:26:03;7.40;99.90
70368;DHT22;57789;53.868;10.728;2022-10-13T05:28:29;7.60;99.90
70368;DHT22;57789;53.868;10.728;2022-10-13T05:30:55;7.60;99.90
70368;DHT22;57789;53.868;10.728;2022-10-13T05:33:20;7.70;99.90
70368;DHT22;57789;53.868;10.728;2022-10-13T05:35:46;7.80;99.90
70368;DHT22;57789;53.868;10.728;2022-10-13T05:38:12;7.90;99.90
70368;DHT22;57789;53.868;10.728;2022-10-13T05:40:37;7.90;99.90
70368;DHT22;57789;53.868;10.728;2022-10-13T05:43:03;7.80;99.90
70368;DHT22;57789;53.868;10.728;2022-10-13T05:45:31;7.70;99.90
70368;DHT22;57789;53.868;10.728;2022-10-13T05:47:57;7.70;99.90
70368;DHT22;57789;53.868;10.728;2022-10-13T05:50:23;7.70;99.90
70368;DHT22;57789;53.868;10.728;2022-10-13T05:52:49;7.70;99.90
70368;DHT22;57789;53.868;10.728;2022-10-13T05:55:17;7.70;99.90
70368;DHT22;57789;53.868;10.728;2022-10-13T05:57:47;7.70;99.90
70368;DHT22;57789;53.868;10.728;2022-10-13T06:00:15;7.70;99.90
70368;DHT22;57789;53.868;10.728;2022-10-13T06:02:54;7.70;99.90
70368;DHT22;57789;53.868;10.728;2022-10-13T06:05:22;7.70;99.90
70368;DHT22;57789;53.868;10.728;2022-10-13T06:07:49;7.70;99.90
70368;DHT22;57789;53.868;10.728;2022-10-13T06:10:15;7.70;99.90
70368;DHT22;57789;53.868;10.728;2022-10-13T06:12:41;7.80;99.90
70368;DHT22;57789;53.868;10.728;2022-10-13T06:15:07;7.90;99.90
70368;DHT22;57789;53.868;10.728;2022-10-13T06:17:37;8.00;99.90
70368;DHT22;57789;53.868;10.728;2022-10-13T06:20:04;7.90;99.90
70368;DHT22;57789;53.868;10.728;2022-10-13T06:22:32;7.90;99.90
70368;DHT22;57789;53.868;10.728;2022-10-13T06:24:57;7.80;99.90
70368;DHT22;57789;53.868;10.728;2022-10-13T06:27:23;7.80;99.90
70368;DHT22;57789;53.868;10.728;2022-10-13T06:29:49;8.00;99.90
70368;DHT22;57789;53.868;10.728;2022-10-13T06:32:14;8.20;99.90
70368;DHT22;57789;53.868;10.728;2022-10-13T06:34:40;8.30;99.90
70368;DHT22;57789;53.868;10.728;2022-10-13T06:37:06;8.30;99.90
70368;DHT22;57789;53.868;10.728;2022-10-13T06:39:32;8.30;99.90
70368;DHT22;57789;53.868;10.728;2022-10-13T06:41:57;8.40;99.90
70368;DHT22;57789;53.868;10.728;2022-10-13T06:44:23;8.50;99.90
70368;DHT22;57789;53.868;10.728;2022-10-13T06:46:48;8.50;99.90
70368;DHT22;57789;53.868;10.728;2022-10-13T06:49:14;8.70;99.90
70368;DHT22;57789;53.868;10.728;2022-10-13T06:51:40;8.70;99.90
70368;DHT22;57789;53.868;10.728;2022-10-13T06:54:06;8.80;99.90
70368;DHT22;57789;53.868;10.728;2022-10-13T06:56:31;8.80;99.90
70368;DHT22;57789;53.868;10.728;2022-10-13T06:58:57;8.80;99.90
70368;DHT22;57789;53.868;10.728;2022-10-13T07:01:23;8.60;99.90
70368;DHT22;57789;53.868;10.728;2022-10-13T07:03:49;8.60;99.90
70368;DHT22;57789;53.868;10.728;2022-10-13T07:06:16;8.60;99.90
70368;DHT22;57789;53.868;10.728;2022-10-13T07:08:41;8.70;99.90
70368;DHT22;57789;53.868;10.728;2022-10-13T07:11:09;8.80;99.90
70368;DHT22;57789;53.868;10.728;2022-10-13T07:13:37;8.90;99.90
70368;DHT22;57789;53.868;10.728;2022-10-13T07:16:04;9.00;99.90
70368;DHT22;57789;53.868;10.728;2022-10-13T07:18:31;9.20;99.90
70368;DHT22;57789;53.868;10.728;2022-10-13T07:20:59;9.20;99.90
70368;DHT22;57789;53.868;10.728;2022-10-13T07:23:26;9.30;99.90
70368;DHT22;57789;53.868;10.728;2022-10-13T07:25:52;9.30;99.90
70368;DHT22;57789;53.868;10.728;2022-10-13T07:28:18;9.40;99.90
70368;DHT22;57789;53.868;10.728;2022-10-13T07:30:44;9.40;99.90
70368;DHT22;57789;53.868;10.728;2022-10-13T07:33:09;9.40;99.90
70368;DHT22;57789;53.868;10.728;2022-10-13T07:35:38;9.50;99.90
70368;DHT22;57789;53.868;10.728;2022-10-13T07:38:05;9.60;99.90
70368;DHT22;57789;53.868;10.728;2022-10-13T07:40:31;9.70;99.90
70368;DHT22;57789;53.868;10.728;2022-10-13T07:42:56;9.70;99.90
70368;DHT22;57789;53.868;10.728;2022-10-13T07:45:23;9.80;99.90
70368;DHT22;57789;53.868;10.728;2022-10-13T07:47:49;9.90;99.90
70368;DHT22;57789;53.868;10.728;2022-10-13T07:50:15;10.00;99.90
70368;DHT22;57789;53.868;10.728;2022-10-13T07:52:41;10.10;99.90
70368;DHT22;57789;53.868;10.728;2022-10-13T07:55:07;10.10;99.90
70368;DHT22;57789;53.868;10.728;2022-10-13T07:57:33;10.10;99.90
70368;DHT22;57789;53.868;10.728;2022-10-13T07:59:59;10.20;99.90
70368;DHT22;57789;53.868;10.728;2022-10-13T08:02:25;10.20;99.90
70368;DHT22;57789;53.868;10.728;2022-10-13T08:04:51;10.20;99.90
70368;DHT22;57789;53.868;10.728;2022-10-13T08:07:17;10.10;99.90
70368;DHT22;57789;53.868;10.728;2022-10-13T08:09:43;10.20;99.90
70368;DHT22;57789;53.868;10.728;2022-10-13T08:12:09;10.30;99.90
70368;DHT22;57789;53.868;10.728;2022-10-13T08:14:34;10.40;99.90
70368;DHT22;57789;53.868;10.728;2022-10-13T08:17:00;10.60;99.90
70368;DHT22;57789;53.868;10.728;2022-10-13T08:19:26;10.60;99.90
70368;DHT22;57789;53.868;10.728;2022-10-13T08:21:53;10.70;99.90
70368;DHT22;57789;53.868;10.728;2022-10-13T08:24:19;10.90;99.90
70368;DHT22;57789;53.868;10.728;2022-10-13T08:26:47;10.90;99.90
70368;DHT22;57789;53.868;10.728;2022-10-13T08:29:14;11.00;99.90
70368;DHT22;57789;53.868;10.728;2022-10-13T08:31:41;11.00;99.90
70368;DHT22;57789;53.868;10.728;2022-10-13T08:34:08;11.10;99.90
70368;DHT22;57789;53.868;10.728;2022-10-13T08:36:34;11.20;99.90
70368;DHT22;57789;53.868;10.728;2022-10-13T08:38:59;11.30;99.90
70368;DHT22;57789;53.868;10.728;2022-10-13T08:41:52;11.30;99.90
70368;DHT22;57789;53.868;10.728;2022-10-13T08:44:40;11.40;99.90
70368;DHT22;57789;53.868;10.728;2022-10-13T08:47:21;11.40;99.90
70368;DHT22;57789;53.868;10.728;2022-10-13T08:49:49;11.40;99.90
70368;DHT22;57789;53.868;10.728;2022-10-13T08:52:24;11.30;99.90
70368;DHT22;57789;53.868;10.728;2022-10-13T08:54:52;11.40;99.90
70368;DHT22;57789;53.868;10.728;2022-10-13T08:57:19;11.50;99.90
70368;DHT22;57789;53.868;10.728;2022-10-13T08:59:47;11.60;99.90
70368;DHT22;57789;53.868;10.728;2022-10-13T09:02:22;11.60;99.90
70368;DHT22;57789;53.868;10.728;2022-10-13T09:04:49;11.80;99.90
70368;DHT22;57789;53.868;10.728;2022-10-13T09:07:31;11.90;99.90
70368;DHT22;57789;53.868;10.728;2022-10-13T09:09:59;12.00;99.90
70368;DHT22;57789;53.868;10.728;2022-10-13T09:12:25;12.00;99.90
70368;DHT22;57789;53.868;10.728;2022-10-13T09:15:00;11.90;99.90
70368;DHT22;57789;53.868;10.728;2022-10-13T09:17:28;12.00;99.90
70368;DHT22;57789;53.868;10.728;2022-10-13T09:22:38;12.20;99.90
70368;DHT22;57789;53.868;10.728;2022-10-13T09:35:45;12.70;99.90
70368;DHT22;57789;53.868;10.728;2022-10-13T09:38:24;12.80;99.90
70368;DHT22;57789;53.868;10.728;2022-10-13T09:41:02;12.80;99.90
70368;DHT22;57789;53.868;10.728;2022-10-13T09:43:30;12.80;99.90
70368;DHT22;57789;53.868;10.728;2022-10-13T09:46:00;12.70;99.90
70368;DHT22;57789;53.868;10.728;2022-10-13T09:48:33;12.80;99.90
70368;DHT22;57789;53.868;10.728;2022-10-13T09:51:00;12.90;99.90
70368;DHT22;57789;53.868;10.728;2022-10-13T09:53:38;12.90;99.90
70368;DHT22;57789;53.868;10.728;2022-10-13T09:56:48;13.10;99.90
70368;DHT22;57789;53.868;10.728;2022-10-13T09:59:32;13.20;99.90
70368;DHT22;57789;53.868;10.728;2022-10-13T10:02:06;13.40;99.90
70368;DHT22;57789;53.868;10.728;2022-10-13T10:04:40;13.40;99.90
70368;DHT22;57789;53.868;10.728;2022-10-13T10:07:15;13.50;99.90
70368;DHT22;57789;53.868;10.728;2022-10-13T10:09:56;13.60;99.90
70368;DHT22;57789;53.868;10.728;2022-10-13T10:12:25;13.60;99.90
70368;DHT22;57789;53.868;10.728;2022-10-13T10:14:52;13.60;99.90
70368;DHT22;57789;53.868;10.728;2022-10-13T10:17:36;13.50;99.90
70368;DHT22;57789;53.868;10.728;2022-10-13T10:23:36;13.60;99.90
70368;DHT22;57789;53.868;10.728;2022-10-13T10:26:09;13.70;99.90
70368;DHT22;57789;53.868;10.728;2022-10-13T10:31:45;13.80;99.90
70368;DHT22;57789;53.868;10.728;2022-10-13T10:44:35;13.90;99.90
70368;DHT22;57789;53.868;10.728;2022-10-13T10:47:35;13.90;99.90
70368;DHT22;57789;53.868;10.728;2022-10-13T10:50:06;14.00;99.90
70368;DHT22;57789;53.868;10.728;2022-10-13T10:55:38;13.80;99.90
70368;DHT22;57789;53.868;10.728;2022-10-13T11:08:43;14.30;99.90
70368;DHT22;57789;53.868;10.728;2022-10-13T11:18:57;14.90;99.90
70368;DHT22;57789;53.868;10.728;2022-10-13T11:22:09;14.90;99.90
70368;DHT22;57789;53.868;10.728;2022-10-13T11:42:46;15.30;99.90
70368;DHT22;57789;53.868;10.728;2022-10-13T11:50:59;15.60;99.90
70368;DHT22;57789;53.868;10.728;2022-10-13T11:53:58;15.60;99.90
70368;DHT22;57789;53.868;10.728;2022-10-13T11:57:15;15.60;99.90
70368;DHT22;57789;53.868;10.728;2022-10-13T11:59:46;15.80;99.90
70368;DHT22;57789;53.868;10.728;2022-10-13T12:02:16;16.00;99.90
70368;DHT22;57789;53.868;10.728;2022-10-13T12:04:43;16.00;99.90
70368;DHT22;57789;53.868;10.728;2022-10-13T12:07:10;16.10;99.90
70368;DHT22;57789;53.868;10.728;2022-10-13T12:09:51;16.10;99.90
70368;DHT22;57789;53.868;10.728;2022-10-13T12:12:19;16.20;99.90
70368;DHT22;57789;53.868;10.728;2022-10-13T12:14:47;16.20;99.90
70368;DHT22;57789;53.868;10.728;2022-10-13T12:19:56;16.20;99.90
70368;DHT22;57789;53.868;10.728;2022-10-13T12:22:22;16.20;99.90
70368;DHT22;57789;53.868;10.728;2022-10-13T12:27:23;16.20;99.90
70368;DHT22;57789;53.868;10.728;2022-10-13T12:29:49;16.10;99.90
70368;DHT22;57789;53.868;10.728;2022-10-13T12:32:23;16.10;99.90
70368;DHT22;57789;53.868;10.728;2022-10-13T12:34:49;16.20;99.90
70368;DHT22;57789;53.868;10.728;2022-10-13T12:39:50;16.50;99.90
70368;DHT22;57789;53.868;10.728;2022-10-13T12:42:16;16.50;99.90
70368;DHT22;57789;53.868;10.728;2022-10-13T12:44:43;16.60;99.90
70368;DHT22;57789;53.868;10.728;2022-10-13T12:47:45;16.50;99.90
70368;DHT22;57789;53.868;10.728;2022-10-13T12:58:23;16.60;99.90
70368;DHT22;57789;53.868;10.728;2022-10-13T13:01:07;16.60;99.90
70368;DHT22;57789;53.868;10.728;2022-10-13T13:03:34;16.80;99.90
70368;DHT22;57789;53.868;10.728;2022-10-13T13:08:40;17.00;99.90
70368;DHT22;57789;53.868;10.728;2022-10-13T13:11:21;17.00;99.90
70368;DHT22;57789;53.868;10.728;2022-10-13T13:13:48;17.10;99.90
70368;DHT22;57789;53.868;10.728;2022-10-13T13:16:21;16.90;99.90
70368;DHT22;57789;53.868;10.728;2022-10-13T13:18:49;16.60;99.90
70368;DHT22;57789;53.868;10.728;2022-10-13T13:21:17;16.40;99.90
70368;DHT22;57789;53.868;10.728;2022-10-13T13:23:45;16.30;99.90
70368;DHT22;57789;53.868;10.728;2022-10-13T13:26:14;16.30;99.90
70368;DHT22;57789;53.868;10.728;2022-10-13T13:28:47;16.40;99.90
70368;DHT22;57789;53.868;10.728;2022-10-13T13:31:16;16.30;99.90
70368;DHT22;57789;53.868;10.728;2022-10-13T13:33:42;16.20;99.90
70368;DHT22;57789;53.868;10.728;2022-10-13T13:36:19;16.10;99.90
70368;DHT22;57789;53.868;10.728;2022-10-13T13:38:46;16.00;99.90
70368;DHT22;57789;53.868;10.728;2022-10-13T13:41:14;15.90;99.90
70368;DHT22;57789;53.868;10.728;2022-10-13T13:43:40;15.80;99.90
70368;DHT22;57789;53.868;10.728;2022-10-13T13:46:31;15.70;99.90
70368;DHT22;57789;53.868;10.728;2022-10-13T13:48:59;15.80;99.90
70368;DHT22;57789;53.868;10.728;2022-10-13T13:51:26;15.90;99.90
70368;DHT22;57789;53.868;10.728;2022-10-13T13:53:52;15.90;99.90
70368;DHT22;57789;53.868;10.728;2022-10-13T13:56:18;16.00;99.90
70368;DHT22;57789;53.868;10.728;2022-10-13T13:58:45;16.00;99.90
70368;DHT22;57789;53.868;10.728;2022-10-13T14:01:11;16.00;99.90
70368;DHT22;57789;53.868;10.728;2022-10-13T14:03:37;15.90;99.90
70368;DHT22;57789;53.868;10.728;2022-10-13T14:06:03;15.90;99.90
70368;DHT22;57789;53.868;10.728;2022-10-13T14:08:32;15.90;99.90
70368;DHT22;57789;53.868;10.728;2022-10-13T14:10:59;15.80;99.90
70368;DHT22;57789;53.868;10.728;2022-10-13T14:13:25;15.70;99.90
70368;DHT22;57789;53.868;10.728;2022-10-13T14:15:58;15.60;99.90
70368;DHT22;57789;53.868;10.728;2022-10-13T14:18:24;15.60;99.90
70368;DHT22;57789;53.868;10.728;2022-10-13T14:20:52;15.60;99.90
70368;DHT22;57789;53.868;10.728;2022-10-13T14:23:18;15.60;99.90
70368;DHT22;57789;53.868;10.728;2022-10-13T14:25:44;15.50;99.90
70368;DHT22;57789;53.868;10.728;2022-10-13T14:28:11;15.50;99.90
70368;DHT22;57789;53.868;10.728;2022-10-13T14:30:40;15.50;99.90
70368;DHT22;57789;53.868;10.728;2022-10-13T14:33:07;15.50;99.90
70368;DHT22;57789;53.868;10.728;2022-10-13T14:35:33;15.40;99.90
70368;DHT22;57789;53.868;10.728;2022-10-13T14:37:59;15.40;99.90
70368;DHT22;57789;53.868;10.728;2022-10-13T14:40:24;15.40;99.90
70368;DHT22;57789;53.868;10.728;2022-10-13T14:42:50;15.40;99.90
70368;DHT22;57789;53.868;10.728;2022-10-13T14:45:16;15.30;99.90
70368;DHT22;57789;53.868;10.728;2022-10-13T14:47:45;15.30;99.90
70368;DHT22;57789;53.868;10.728;2022-10-13T14:50:11;15.30;99.90
70368;DHT22;57789;53.868;10.728;2022-10-13T14:52:37;15.30;99.90
70368;DHT22;57789;53.868;10.728;2022-10-13T14:55:02;15.20;99.90
70368;DHT22;57789;53.868;10.728;2022-10-13T14:57:28;15.20;99.90
70368;DHT22;57789;53.868;10.728;2022-10-13T14:59:54;15.20;99.90
70368;DHT22;57789;53.868;10.728;2022-10-13T15:02:19;15.20;99.90
70368;DHT22;57789;53.868;10.728;2022-10-13T15:04:45;15.20;99.90
70368;DHT22;57789;53.868;10.728;2022-10-13T15:07:11;15.20;99.90
70368;DHT22;57789;53.868;10.728;2022-10-13T15:09:36;15.20;99.90
70368;DHT22;57789;53.868;10.728;2022-10-13T15:12:02;15.20;99.90
70368;DHT22;57789;53.868;10.728;2022-10-13T15:14:30;15.10;99.90
70368;DHT22;57789;53.868;10.728;2022-10-13T15:16:56;15.10;99.90
70368;DHT22;57789;53.868;10.728;2022-10-13T15:19:21;15.10;99.90
70368;DHT22;57789;53.868;10.728;2022-10-13T15:21:47;15.00;99.90
70368;DHT22;57789;53.868;10.728;2022-10-13T15:24:13;15.10;99.90
70368;DHT22;57789;53.868;10.728;2022-10-13T15:26:41;15.10;99.90
70368;DHT22;57789;53.868;10.728;2022-10-13T15:29:07;15.00;99.90
70368;DHT22;57789;53.868;10.728;2022-10-13T15:31:32;15.00;99.90
70368;DHT22;57789;53.868;10.728;2022-10-13T15:33:59;15.00;99.90
70368;DHT22;57789;53.868;10.728;2022-10-13T15:36:25;15.00;99.90
70368;DHT22;57789;53.868;10.728;2022-10-13T15:38:51;15.00;99.90
70368;DHT22;57789;53.868;10.728;2022-10-13T15:41:17;15.10;99.90
70368;DHT22;57789;53.868;10.728;2022-10-13T15:43:43;15.00;99.90
70368;DHT22;57789;53.868;10.728;2022-10-13T15:46:12;15.00;99.90
70368;DHT22;57789;53.868;10.728;2022-10-13T15:48:50;15.00;99.90
70368;DHT22;57789;53.868;10.728;2022-10-13T15:51:25;15.00;99.90
70368;DHT22;57789;53.868;10.728;2022-10-13T15:53:51;15.00;99.90
70368;DHT22;57789;53.868;10.728;2022-10-13T15:56:17;15.00;99.90
70368;DHT22;57789;53.868;10.728;2022-10-13T15:58:42;15.00;99.90
70368;DHT22;57789;53.868;10.728;2022-10-13T16:01:11;14.90;99.90
70368;DHT22;57789;53.868;10.728;2022-10-13T16:03:37;14.90;99.90
70368;DHT22;57789;53.868;10.728;2022-10-13T16:06:04;14.80;99.90
70368;DHT22;57789;53.868;10.728;2022-10-13T16:08:30;14.80;99.90
70368;DHT22;57789;53.868;10.728;2022-10-13T16:10:56;14.80;99.90
70368;DHT22;57789;53.868;10.728;2022-10-13T16:13:22;14.70;99.90
70368;DHT22;57789;53.868;10.728;2022-10-13T16:16:06;14.70;99.90
70368;DHT22;57789;53.868;10.728;2022-10-13T16:18:35;14.60;99.90
70368;DHT22;57789;53.868;10.728;2022-10-13T16:21:08;14.60;99.90
70368;DHT22;57789;53.868;10.728;2022-10-13T16:23:33;14.60;99.90
70368;DHT22;57789;53.868;10.728;2022-10-13T16:26:01;14.60;99.90
70368;DHT22;57789;53.868;10.728;2022-10-13T16:28:26;14.60;99.90
70368;DHT22;57789;53.868;10.728;2022-10-13T16:30:52;14.60;99.90
70368;DHT22;57789;53.868;10.728;2022-10-13T16:33:18;14.50;99.90
70368;DHT22;57789;53.868;10.728;2022-10-13T16:35:43;14.50;99.90
70368;DHT22;57789;53.868;10.728;2022-10-13T16:38:09;14.40;99.90
70368;DHT22;57789;53.868;10.728;2022-10-13T16:40:37;14.40;99.90
70368;DHT22;57789;53.868;10.728;2022-10-13T16:43:04;14.30;99.90
70368;DHT22;57789;53.868;10.728;2022-10-13T16:45:30;14.30;99.90
70368;DHT22;57789;53.868;10.728;2022-10-13T16:47:56;14.20;99.90
70368;DHT22;57789;53.868;10.728;2022-10-13T16:50:21;14.20;99.90
70368;DHT22;57789;53.868;10.728;2022-10-13T16:52:47;14.10;99.90
70368;DHT22;57789;53.868;10.728;2022-10-13T16:55:13;14.10;99.90
70368;DHT22;57789;53.868;10.728;2022-10-13T16:57:40;14.10;99.90
70368;DHT22;57789;53.868;10.728;2022-10-13T17:00:06;14.00;99.90
70368;DHT22;57789;53.868;10.728;2022-10-13T17:02:34;13.90;99.90
70368;DHT22;57789;53.868;10.728;2022-10-13T17:04:59;13.80;99.90
70368;DHT22;57789;53.868;10.728;2022-10-13T17:07:25;13.80;99.90
70368;DHT22;57789;53.868;10.728;2022-10-13T17:09:51;13.80;99.90
70368;DHT22;57789;53.868;10.728;2022-10-13T17:12:16;13.70;99.90
70368;DHT22;57789;53.868;10.728;2022-10-13T17:14:42;13.70;99.90
70368;DHT22;57789;53.868;10.728;2022-10-13T17:17:08;13.70;99.90
70368;DHT22;57789;53.868;10.728;2022-10-13T17:19:34;13.70;99.90
70368;DHT22;57789;53.868;10.728;2022-10-13T17:21:59;13.70;99.90
70368;DHT22;57789;53.868;10.728;2022-10-13T17:24:25;13.70;99.90
70368;DHT22;57789;53.868;10.728;2022-10-13T17:26:51;13.70;99.90
70368;DHT22;57789;53.868;10.728;2022-10-13T17:29:16;13.60;99.90